Time;durP1;ratioP1;P1;durP2;ratioP2;P2;SDS_P1;SDS_P2;PMS_P1;PMS_P2;Temp;Humidity;BMP_temperature;BMP_pressure;BME280_temperature;BME280_humidity;BME280_pressure;Samples;Min_cycle;Max_cycle;Signal;HPM_P1;HPM_P2
2023/11/04 00:00:05;;;;;;;3.93;2.93;;;;;;;15.06;79.02;92185.13;515739;28;908;-68
2023/11/04 00:00:21;;;;;;;5.07;2.88;;;;;;;15.09;78.84;92185.97;515752;28;919;-68
2023/11/04 00:00:37;;;;;;;4.80;2.78;;;;;;;15.10;78.81;92190.19;515656;28;878;-68
2023/11/04 00:00:52;;;;;;;3.50;2.72;;;;;;;15.10;78.69;92182.59;515507;28;889;-68
2023/11/04 00:01:08;;;;;;;3.97;3.07;;;;;;;15.11;78.66;92186.81;515379;28;1321;-68
2023/11/04 00:01:23;;;;;;;5.25;3.17;;;;;;;15.12;78.64;92193.09;514437;28;1769;-68
2023/11/04 00:01:39;;;;;;;6.00;3.47;;;;;;;15.13;78.57;92191.78;515612;28;873;-68
2023/11/04 00:01:54;;;;;;;5.27;3.70;;;;;;;15.13;78.57;92186.22;515599;28;927;-68
2023/11/04 00:02:09;;;;;;;4.65;3.30;;;;;;;15.14;78.43;92195.97;515746;28;864;-68
2023/11/04 00:02:26;;;;;;;6.77;3.70;;;;;;;15.14;78.50;92196.72;515607;28;844;-68
2023/11/04 00:02:41;;;;;;;6.10;3.80;;;;;;;15.15;78.63;92200.22;515670;28;1053;-69
2023/11/04 00:02:57;;;;;;;3.27;2.97;;;;;;;15.16;78.05;92198.88;515484;28;849;-69
2023/11/04 00:03:12;;;;;;;3.20;2.70;;;;;;;15.16;77.60;92202.38;515728;28;769;-69
2023/11/04 00:03:28;;;;;;;3.83;2.80;;;;;;;15.18;77.33;92196.22;515794;28;856;-68
2023/11/04 00:03:44;;;;;;;3.53;2.70;;;;;;;15.19;76.95;92194.88;515636;28;903;-68
2023/11/04 00:04:00;;;;;;;4.63;2.80;;;;;;;15.21;76.96;92192.22;515712;28;857;-68
2023/11/04 00:04:15;;;;;;;4.30;2.80;;;;;;;15.23;77.06;92197.16;515721;28;2361;-68
2023/11/04 00:04:30;;;;;;;4.55;2.80;;;;;;;15.00;76.86;92161.84;515676;28;892;-68
2023/11/04 00:04:46;;;;;;;4.70;2.83;;;;;;;15.25;77.11;92183.38;515593;28;1250;-68
2023/11/04 00:05:01;;;;;;;4.20;2.80;;;;;;;15.23;77.15;92180.47;515601;28;852;-68
2023/11/04 00:05:17;;;;;;;4.90;3.15;;;;;;;15.24;77.26;92182.66;515719;28;927;-68
2023/11/04 00:05:32;;;;;;;5.47;3.10;;;;;;;15.26;77.40;92182.06;515719;28;813;-68
2023/11/04 00:05:48;;;;;;;5.60;3.22;;;;;;;15.27;77.27;92186.28;515659;28;1075;-68
2023/11/04 00:06:03;;;;;;;4.73;3.13;;;;;;;15.28;77.41;92182.16;515804;28;801;-68
2023/11/04 00:06:20;;;;;;;4.43;2.90;;;;;;;15.27;77.62;92175.16;513645;28;860;-68
2023/11/04 00:06:36;;;;;;;4.53;2.90;;;;;;;15.28;77.64;92174.56;513403;28;879;-68
2023/11/04 00:06:51;;;;;;;5.07;2.80;;;;;;;15.29;77.55;92178.06;513346;28;1106;-68
2023/11/04 00:07:06;;;;;;;5.90;2.73;;;;;;;15.23;77.39;92163.78;513449;28;900;-68
2023/11/04 00:07:22;;;;;;;5.65;2.80;;;;;;;15.29;77.07;92175.28;515384;28;1122;-69
2023/11/04 00:07:37;;;;;;;5.73;2.80;;;;;;;15.27;77.13;92177.94;515484;28;770;-68
2023/11/04 00:07:53;;;;;;;4.53;2.72;;;;;;;15.28;77.14;92182.16;513145;28;1163;-68
2023/11/04 00:08:09;;;;;;;4.03;2.43;;;;;;;15.29;77.27;92180.84;514025;28;883;-69
2023/11/04 00:08:26;;;;;;;3.67;2.10;;;;;;;15.29;77.26;92178.06;515886;28;757;-69
2023/11/04 00:08:41;;;;;;;4.13;2.55;;;;;;;15.30;77.11;92176.72;515706;28;848;-68
2023/11/04 00:08:56;;;;;;;5.47;2.73;;;;;;;15.30;77.10;92174.66;515699;28;766;-68
2023/11/04 00:09:12;;;;;;;4.47;2.50;;;;;;;15.17;76.89;92161.41;515433;28;1003;-68
2023/11/04 00:09:27;;;;;;;4.88;2.58;;;;;;;15.33;77.21;92175.50;515835;28;853;-68
2023/11/04 00:09:43;;;;;;;4.33;2.57;;;;;;;15.29;77.17;92164.16;515616;28;1156;-69
2023/11/04 00:09:59;;;;;;;3.05;2.65;;;;;;;15.33;77.32;92172.72;515634;28;860;-70
2023/11/04 00:10:14;;;;;;;3.65;2.58;;;;;;;15.34;77.24;92171.38;515368;28;841;-69
2023/11/04 00:10:30;;;;;;;4.17;2.83;;;;;;;15.32;77.48;92165.69;515669;28;841;-70
2023/11/04 00:10:45;;;;;;;4.53;3.17;;;;;;;15.33;77.68;92167.16;515400;28;862;-68
2023/11/04 00:11:01;;;;;;;5.37;3.00;;;;;;;15.34;77.75;92169.31;515570;28;988;-68
2023/11/04 00:11:18;;;;;;;4.75;2.95;;;;;;;15.35;77.64;92170.06;515380;28;791;-69
2023/11/04 00:11:33;;;;;;;4.50;2.90;;;;;;;15.36;77.34;92163.13;515737;28;946;-68
2023/11/04 00:11:48;;;;;;;4.38;2.80;;;;;;;15.36;77.19;92163.88;513205;28;1153;-68
2023/11/04 00:12:04;;;;;;;4.07;2.73;;;;;;;15.35;77.10;92165.22;513372;28;780;-68
2023/11/04 00:12:20;;;;;;;3.65;2.65;;;;;;;15.35;77.01;92168.00;513325;28;798;-70
2023/11/04 00:12:35;;;;;;;4.50;2.33;;;;;;;15.35;76.90;92175.63;513644;28;836;-69
2023/11/04 00:12:50;;;;;;;4.82;2.28;;;;;;;15.36;76.78;92174.25;513310;28;1171;-69
2023/11/04 00:13:09;;;;;;;3.53;2.33;;;;;;;15.35;76.73;92168.00;511192;29;1457;-69
2023/11/04 00:13:24;;;;;;;3.92;2.70;;;;;;;15.36;76.26;92154.78;511272;29;947;-69
2023/11/04 00:13:40;;;;;;;4.03;2.60;;;;;;;15.34;75.83;92155.41;512223;28;941;-68
2023/11/04 00:13:55;;;;;;;3.80;2.37;;;;;;;15.38;75.90;92163.25;513366;28;912;-69
2023/11/04 00:14:11;;;;;;;3.75;2.40;;;;;;;15.39;75.65;92161.94;513337;28;984;-69
2023/11/04 00:14:26;;;;;;;3.60;2.40;;;;;;;15.40;75.72;92160.59;513390;28;765;-68
2023/11/04 00:14:42;;;;;;;4.10;2.40;;;;;;;15.41;75.95;92162.03;513395;28;1994;-69
2023/11/04 00:14:57;;;;;;;4.33;2.30;;;;;;;15.40;75.40;92169.66;514041;28;1078;-70
2023/11/04 00:15:13;;;;;;;6.20;2.45;;;;;;;15.41;75.36;92162.78;515394;28;826;-69
2023/11/04 00:15:29;;;;;;;6.93;2.55;;;;;;;15.42;75.53;92169.06;515523;28;924;-68
2023/11/04 00:15:45;;;;;;;5.40;2.30;;;;;;;15.42;75.57;92164.19;515758;28;1323;-68
2023/11/04 00:16:03;;;;;;;5.97;2.47;;;;;;;15.43;75.61;92168.47;515595;28;852;-68
2023/11/04 00:16:18;;;;;;;4.93;2.53;;;;;;;15.44;75.77;92160.84;515343;28;926;-69
2023/11/04 00:16:35;;;;;;;3.72;2.40;;;;;;;15.44;75.70;92161.56;515418;28;931;-69
2023/11/04 00:16:50;;;;;;;3.55;2.25;;;;;;;15.44;75.69;92158.06;515545;28;837;-70
2023/11/04 00:17:05;;;;;;;4.43;2.40;;;;;;;15.43;75.65;92156.59;515480;28;987;-68
2023/11/04 00:17:21;;;;;;;4.60;2.58;;;;;;;15.44;75.88;92152.50;515547;28;832;-69
2023/11/04 00:17:36;;;;;;;3.40;2.10;;;;;;;15.41;75.63;92150.91;515443;28;968;-72
2023/11/04 00:17:54;;;;;;;3.17;2.10;;;;;;;15.40;75.61;92146.69;515690;28;837;-72
2023/11/04 00:18:09;;;;;;;3.17;2.20;;;;;;;15.37;75.55;92136.78;515562;28;996;-70
2023/11/04 00:18:27;;;;;;;3.20;2.30;;;;;;;15.38;75.73;92136.16;515488;28;785;-70
2023/11/04 00:18:42;;;;;;;4.38;2.22;;;;;;;15.40;75.99;92132.78;515589;28;1696;-70
2023/11/04 00:18:57;;;;;;;5.00;2.20;;;;;;;15.41;75.79;92128.66;515547;28;840;-70
2023/11/04 00:19:14;;;;;;;4.50;2.13;;;;;;;15.42;75.95;92135.69;515514;28;824;-71
2023/11/04 00:19:29;;;;;;;3.42;2.35;;;;;;;15.42;76.02;92130.13;515479;28;979;-69
2023/11/04 00:19:45;;;;;;;3.73;2.33;;;;;;;15.43;75.88;92134.34;515264;28;844;-70
2023/11/04 00:20:02;;;;;;;4.60;2.40;;;;;;;15.43;75.66;92134.34;515592;28;911;-68
2023/11/04 00:20:18;;;;;;;5.22;2.25;;;;;;;15.36;75.54;92138.84;515588;28;970;-73
2023/11/04 00:20:33;;;;;;;3.78;2.17;;;;;;;15.33;75.53;92144.91;513282;28;809;-72
2023/11/04 00:20:48;;;;;;;3.07;2.40;;;;;;;15.34;75.57;92146.34;513440;28;758;-70
2023/11/04 00:21:07;;;;;;;3.63;2.33;;;;;;;15.35;75.80;92154.09;513513;28;1278;-72
2023/11/04 00:21:23;;;;;;;3.22;2.30;;;;;;;15.34;75.60;92151.91;511591;29;849;-71
2023/11/04 00:21:41;;;;;;;3.50;2.33;;;;;;;15.34;75.66;92152.63;511271;29;850;-71
2023/11/04 00:21:57;;;;;;;4.70;2.13;;;;;;;15.35;75.67;92156.88;511298;29;1019;-70
2023/11/04 00:22:13;;;;;;;5.70;2.37;;;;;;;15.36;75.64;92152.00;511363;29;853;-69
2023/11/04 00:22:29;;;;;;;5.93;2.50;;;;;;;15.39;75.86;92162.66;512588;28;861;-69
2023/11/04 00:22:45;;;;;;;4.53;2.30;;;;;;;15.40;75.88;92158.53;513565;28;918;-70
2023/11/04 00:23:00;;;;;;;3.13;2.13;;;;;;;15.41;75.62;92150.91;513388;28;785;-70
2023/11/04 00:23:15;;;;;;;3.55;2.30;;;;;;;15.42;75.64;92153.06;514126;28;1067;-69
2023/11/04 00:23:31;;;;;;;5.40;2.60;;;;;;;15.44;75.63;92155.28;515640;28;888;-72
2023/11/04 00:23:46;;;;;;;5.07;2.50;;;;;;;15.41;75.80;92159.25;515634;28;829;-71
2023/11/04 00:24:02;;;;;;;3.65;2.70;;;;;;;15.26;75.72;92152.19;515524;28;841;-71
2023/11/04 00:24:19;;;;;;;3.10;2.50;;;;;;;15.22;75.96;92157.53;515341;28;827;-73
2023/11/04 00:24:34;;;;;;;3.97;2.22;;;;;;;15.24;76.02;92154.13;515429;28;852;-73
2023/11/04 00:24:53;;;;;;;5.63;2.45;;;;;;;15.25;76.13;92147.22;515541;28;872;-73
2023/11/04 00:25:08;;;;;;;4.53;2.35;;;;;;;15.27;76.23;92158.47;515449;28;937;-72
2023/11/04 00:25:24;;;;;;;3.58;2.22;;;;;;;15.29;76.22;92156.53;515560;28;861;-70
2023/11/04 00:25:39;;;;;;;3.50;2.13;;;;;;;15.32;76.55;92157.34;515309;28;907;-71
2023/11/04 00:25:55;;;;;;;3.33;2.13;;;;;;;15.33;76.53;92150.47;515231;28;805;-71
2023/11/04 00:26:10;;;;;;;6.07;2.40;;;;;;;15.35;76.34;92158.94;515108;28;758;-72
2023/11/04 00:26:26;;;;;;;6.23;2.40;;;;;;;15.35;76.09;92147.81;514647;28;1417;-70
2023/11/04 00:26:42;;;;;;;4.97;2.03;;;;;;;15.35;75.72;92145.75;514534;28;921;-69
2023/11/04 00:26:58;;;;;;;3.17;1.70;;;;;;;15.36;75.63;92149.97;515312;28;813;-70
2023/11/04 00:27:14;;;;;;;2.20;1.95;;;;;;;15.37;75.80;92145.13;515114;28;1091;-69
2023/11/04 00:27:29;;;;;;;3.77;2.50;;;;;;;15.39;75.70;92148.03;515419;28;818;-69
2023/11/04 00:27:45;;;;;;;3.50;2.30;;;;;;;15.41;75.84;92145.34;514483;28;764;-69
2023/11/04 00:28:01;;;;;;;3.55;2.30;;;;;;;15.42;75.67;92144.03;513468;28;927;-69
2023/11/04 00:28:19;;;;;;;4.05;2.38;;;;;;;15.43;75.63;92149.00;513217;28;1232;-69
2023/11/04 00:28:34;;;;;;;4.03;2.47;;;;;;;15.45;75.67;92137.25;514466;28;857;-69
2023/11/04 00:28:49;;;;;;;4.33;2.70;;;;;;;15.46;75.60;92141.50;515433;28;798;-69
2023/11/04 00:29:05;;;;;;;4.00;2.30;;;;;;;15.47;75.62;92135.31;515550;28;900;-69
2023/11/04 00:29:20;;;;;;;3.33;2.27;;;;;;;15.47;76.02;92126.25;515302;28;867;-69
2023/11/04 00:29:36;;;;;;;3.00;2.47;;;;;;;15.49;76.03;92132.63;515336;28;836;-69
2023/11/04 00:29:51;;;;;;;3.67;2.53;;;;;;;15.49;76.03;92129.84;515124;28;1144;-71
2023/11/04 00:30:07;;;;;;;4.27;2.47;;;;;;;15.51;75.89;92140.38;515354;28;855;-69
2023/11/04 00:30:23;;;;;;;3.17;2.08;;;;;;;15.50;75.87;92127.81;515339;28;817;-70
2023/11/04 00:30:38;;;;;;;2.28;1.80;;;;;;;15.51;75.59;92134.81;515365;28;903;-69
2023/11/04 00:30:54;;;;;;;2.30;2.00;;;;;;;15.51;75.57;92137.59;515398;28;833;-69
2023/11/04 00:31:11;;;;;;;3.78;2.22;;;;;;;15.51;75.80;92134.81;515576;28;850;-70
2023/11/04 00:31:28;;;;;;;5.60;2.35;;;;;;;15.51;75.68;92137.59;515395;28;915;-69
2023/11/04 00:31:43;;;;;;;5.25;2.35;;;;;;;15.53;75.77;92129.34;515567;28;888;-69
2023/11/04 00:31:58;;;;;;;4.13;2.50;;;;;;;15.52;75.65;92127.91;515537;28;829;-70
2023/11/04 00:32:14;;;;;;;2.97;2.33;;;;;;;15.48;76.08;92128.44;515576;28;916;-69
2023/11/04 00:32:30;;;;;;;3.22;2.10;;;;;;;15.47;76.06;92129.75;515001;28;1357;-69
2023/11/04 00:32:45;;;;;;;3.58;2.13;;;;;;;15.46;76.18;92124.81;514391;28;1084;-69
2023/11/04 00:33:01;;;;;;;2.93;2.13;;;;;;;15.41;76.08;92118.28;514152;28;837;-72
2023/11/04 00:33:16;;;;;;;2.93;2.30;;;;;;;15.42;76.01;92114.13;515080;28;1409;-71
2023/11/04 00:33:31;;;;;;;2.88;2.28;;;;;;;15.45;75.83;92115.00;515510;28;868;-70
2023/11/04 00:33:48;;;;;;;4.77;2.27;;;;;;;15.46;75.86;92116.47;515466;28;809;-71
2023/11/04 00:34:03;;;;;;;4.90;2.28;;;;;;;15.44;75.96;92105.22;515447;28;906;-71
2023/11/04 00:34:19;;;;;;;3.83;2.15;;;;;;;15.44;76.04;92102.44;515334;28;872;-71
2023/11/04 00:34:34;;;;;;;4.00;2.30;;;;;;;15.42;76.20;92103.00;515477;28;864;-70
2023/11/04 00:34:49;;;;;;;3.85;2.38;;;;;;;15.43;76.18;92092.63;515460;28;1977;-71
2023/11/04 00:35:05;;;;;;;4.63;2.20;;;;;;;15.36;76.20;92091.56;515408;28;908;-72
2023/11/04 00:35:20;;;;;;;4.63;2.15;;;;;;;15.35;76.19;92092.19;515639;28;896;-70
2023/11/04 00:35:36;;;;;;;3.63;2.37;;;;;;;15.37;76.25;92089.50;515357;28;817;-70
2023/11/04 00:35:51;;;;;;;4.27;2.50;;;;;;;15.36;76.28;92085.28;515470;28;884;-70
2023/11/04 00:36:08;;;;;;;4.82;2.25;;;;;;;15.38;76.33;92086.09;515629;28;853;-69
2023/11/04 00:36:23;;;;;;;4.20;2.22;;;;;;;15.36;76.45;92083.22;515449;28;923;-70
2023/11/04 00:36:39;;;;;;;2.63;2.15;;;;;;;15.26;76.41;92079.91;515520;28;813;-71
2023/11/04 00:36:54;;;;;;;3.03;2.00;;;;;;;15.26;76.43;92074.34;515251;28;769;-70
2023/11/04 00:37:10;;;;;;;5.13;2.03;;;;;;;15.27;76.56;92078.53;515524;28;872;-71
2023/11/04 00:37:25;;;;;;;4.70;2.10;;;;;;;15.27;76.50;92075.06;515592;28;837;-73
2023/11/04 00:37:41;;;;;;;3.08;2.15;;;;;;;15.29;76.58;92070.31;515472;28;876;-70
2023/11/04 00:37:56;;;;;;;4.03;2.20;;;;;;;15.31;76.62;92072.50;515538;28;1619;-70
2023/11/04 00:38:12;;;;;;;4.15;2.30;;;;;;;15.32;76.62;92071.88;515664;28;793;-69
2023/11/04 00:38:27;;;;;;;4.30;2.43;;;;;;;15.33;76.58;92078.16;515237;28;844;-69
2023/11/04 00:38:42;;;;;;;4.90;2.40;;;;;;;15.34;76.66;92071.25;515545;28;774;-69
2023/11/04 00:38:59;;;;;;;3.38;2.13;;;;;;;15.34;76.85;92071.25;515472;28;797;-72
2023/11/04 00:39:14;;;;;;;3.67;2.30;;;;;;;15.31;76.90;92075.28;515665;28;919;-71
2023/11/04 00:39:30;;;;;;;4.07;2.40;;;;;;;15.26;76.76;92070.81;515676;28;745;-71
2023/11/04 00:39:45;;;;;;;3.97;2.33;;;;;;;15.19;76.90;92067.72;515623;28;806;-71
2023/11/04 00:40:01;;;;;;;4.20;2.27;;;;;;;15.10;77.13;92059.53;515644;28;802;-69
2023/11/04 00:40:16;;;;;;;3.42;2.10;;;;;;;15.17;77.13;92062.06;515807;28;880;-70
2023/11/04 00:40:32;;;;;;;3.00;2.20;;;;;;;15.08;77.28;92070.53;515435;28;770;-72
2023/11/04 00:40:47;;;;;;;3.20;2.13;;;;;;;15.11;77.57;92075.63;515673;28;774;-73
2023/11/04 00:41:05;;;;;;;3.70;2.30;;;;;;;15.14;77.50;92070.88;515576;28;789;-70
2023/11/04 00:41:21;;;;;;;3.53;2.40;;;;;;;15.15;77.37;92066.78;515825;28;861;-70
2023/11/04 00:41:36;;;;;;;2.38;2.03;;;;;;;15.16;77.31;92071.72;515652;28;761;-71
2023/11/04 00:41:51;;;;;;;3.20;2.20;;;;;;;15.18;77.14;92071.13;515672;28;750;-70
2023/11/04 00:42:07;;;;;;;5.00;2.23;;;;;;;15.15;77.34;92078.63;515660;28;769;-71
2023/11/04 00:42:22;;;;;;;4.22;2.15;;;;;;;15.14;77.36;92079.94;515654;28;919;-70
2023/11/04 00:42:38;;;;;;;3.10;2.23;;;;;;;15.16;77.56;92082.84;515462;28;812;-70
2023/11/04 00:42:53;;;;;;;3.47;2.27;;;;;;;15.17;77.62;92094.69;514552;28;1382;-72
2023/11/04 00:43:08;;;;;;;3.80;2.30;;;;;;;15.13;77.26;92088.91;515256;28;953;-71
2023/11/04 00:43:24;;;;;;;3.10;2.17;;;;;;;15.16;77.16;92090.44;515732;28;757;-72
2023/11/04 00:43:39;;;;;;;2.88;2.05;;;;;;;15.17;77.31;92091.91;515630;28;785;-70
2023/11/04 00:43:55;;;;;;;3.17;2.13;;;;;;;15.19;77.21;92097.56;515478;28;1222;-69
2023/11/04 00:44:10;;;;;;;3.67;2.07;;;;;;;15.23;77.21;92102.63;515617;28;1022;-70
2023/11/04 00:44:25;;;;;;;3.80;2.33;;;;;;;15.23;77.40;92114.47;515885;28;816;-70
2023/11/04 00:44:41;;;;;;;3.37;2.50;;;;;;;15.23;77.38;92103.34;515534;28;809;-71
2023/11/04 00:44:56;;;;;;;4.03;2.50;;;;;;;15.24;77.32;92104.09;515571;28;1037;-69
2023/11/04 00:45:11;;;;;;;4.18;2.55;;;;;;;15.25;77.31;92105.50;515724;28;789;-70
2023/11/04 00:45:27;;;;;;;3.80;2.57;;;;;;;15.26;77.37;92107.72;515507;28;1032;-71
2023/11/04 00:45:42;;;;;;;4.63;2.65;;;;;;;15.25;77.40;92103.47;515683;28;827;-70
2023/11/04 00:45:58;;;;;;;5.13;2.60;;;;;;;15.25;77.44;92106.25;515630;28;868;-70
2023/11/04 00:46:13;;;;;;;5.17;2.40;;;;;;;15.27;77.55;92106.34;515778;28;830;-70
2023/11/04 00:46:29;;;;;;;4.75;2.70;;;;;;;15.28;77.56;92109.88;515560;28;778;-71
2023/11/04 00:46:44;;;;;;;4.03;2.70;;;;;;;15.29;77.55;92108.53;515401;28;849;-71
2023/11/04 00:46:59;;;;;;;4.37;2.37;;;;;;;15.25;77.62;92102.72;515314;28;1406;-71
2023/11/04 00:47:15;;;;;;;5.30;2.20;;;;;;;15.30;77.49;92105.13;515798;28;826;-71
2023/11/04 00:47:32;;;;;;;5.00;2.23;;;;;;;15.31;77.50;92105.88;515683;28;837;-71
2023/11/04 00:47:47;;;;;;;4.03;2.50;;;;;;;15.33;77.30;92111.53;515609;28;844;-71
2023/11/04 00:48:03;;;;;;;3.15;2.28;;;;;;;15.34;77.44;92107.41;515619;28;867;-71
2023/11/04 00:48:19;;;;;;;2.90;2.15;;;;;;;15.34;77.26;92104.63;515636;28;826;-71
2023/11/04 00:48:34;;;;;;;2.70;2.27;;;;;;;15.35;77.41;92106.09;515555;28;845;-71
2023/11/04 00:48:50;;;;;;;3.20;2.00;;;;;;;15.32;77.17;92094.13;515324;28;781;-70
2023/11/04 00:49:06;;;;;;;4.13;1.92;;;;;;;15.31;76.99;92098.22;513300;28;1159;-72
2023/11/04 00:49:21;;;;;;;2.93;2.07;;;;;;;15.30;77.05;92093.28;513618;28;900;-70
2023/11/04 00:49:37;;;;;;;2.33;2.03;;;;;;;14.97;76.84;92044.25;513381;28;909;-70
2023/11/04 00:49:54;;;;;;;2.53;2.00;;;;;;;15.29;76.93;92084.22;513465;28;921;-70
2023/11/04 00:50:10;;;;;;;3.10;1.98;;;;;;;15.29;76.85;92089.06;513433;28;859;-72
2023/11/04 00:50:29;;;;;;;3.70;1.90;;;;;;;15.29;76.77;92075.19;513680;28;856;-72
2023/11/04 00:50:44;;;;;;;2.90;2.22;;;;;;;15.29;77.00;92072.41;513636;28;912;-73
2023/11/04 00:50:59;;;;;;;3.37;2.40;;;;;;;15.30;77.00;92063.44;514356;28;825;-73
2023/11/04 00:51:15;;;;;;;5.20;2.50;;;;;;;15.31;76.88;92072.50;515536;28;757;-73
2023/11/04 00:51:30;;;;;;;6.18;2.50;;;;;;;15.31;76.99;92067.63;515786;28;1079;-73
2023/11/04 00:51:45;;;;;;;6.03;2.63;;;;;;;15.32;76.93;92060.75;515643;28;833;-73
2023/11/04 00:52:01;;;;;;;6.53;3.07;;;;;;;15.33;76.99;92064.25;515650;28;761;-73
2023/11/04 00:52:17;;;;;;;7.85;4.15;;;;;;;15.09;77.05;92033.09;515438;28;854;-73
2023/11/04 00:52:32;;;;;;;7.13;4.33;;;;;;;15.33;76.95;92062.22;515752;28;904;-73
2023/11/04 00:52:48;;;;;;;5.10;3.47;;;;;;;15.25;76.86;92049.91;515514;28;876;-71
2023/11/04 00:53:04;;;;;;;5.57;3.47;;;;;;;15.36;76.83;92071.38;515563;28;868;-70
2023/11/04 00:53:19;;;;;;;8.85;4.45;;;;;;;15.36;76.75;92065.81;515525;28;867;-71
2023/11/04 00:53:35;;;;;;;9.53;4.77;;;;;;;15.37;76.69;92081.16;515611;28;794;-72
2023/11/04 00:53:50;;;;;;;7.43;4.07;;;;;;;15.36;76.54;92071.38;515686;28;817;-70
2023/11/04 00:54:07;;;;;;;6.57;3.90;;;;;;;15.36;76.59;92071.38;515572;28;821;-71
2023/11/04 00:54:22;;;;;;;4.82;3.60;;;;;;;15.36;76.56;92074.88;515397;28;932;-70
2023/11/04 00:54:38;;;;;;;5.00;3.67;;;;;;;15.34;76.46;92063.66;515817;28;854;-70
2023/11/04 00:54:53;;;;;;;5.33;3.60;;;;;;;15.32;76.66;92087.84;515466;28;1986;-70
2023/11/04 00:55:09;;;;;;;6.13;3.17;;;;;;;15.31;76.75;92075.28;515419;28;793;-69
2023/11/04 00:55:24;;;;;;;5.80;3.10;;;;;;;15.30;76.78;92087.72;515579;28;765;-69
2023/11/04 00:55:39;;;;;;;4.00;2.67;;;;;;;15.27;76.89;92086.88;515867;28;1038;-69
2023/11/04 00:55:55;;;;;;;4.03;2.30;;;;;;;15.27;76.89;92081.31;515586;28;876;-70
2023/11/04 00:56:10;;;;;;;4.20;2.23;;;;;;;15.28;77.04;92088.34;515515;28;777;-70
2023/11/04 00:56:25;;;;;;;4.43;2.40;;;;;;;15.29;77.13;92086.28;515494;28;824;-71
2023/11/04 00:56:41;;;;;;;6.60;2.37;;;;;;;15.10;77.13;92063.06;515831;28;923;-70
2023/11/04 00:56:56;;;;;;;5.93;2.33;;;;;;;15.31;77.23;92089.19;515441;28;1077;-70
2023/11/04 00:57:12;;;;;;;4.55;2.40;;;;;;;15.31;77.16;92086.41;515469;28;857;-70
2023/11/04 00:57:28;;;;;;;4.05;2.42;;;;;;;15.32;77.17;92085.78;515607;28;876;-70
2023/11/04 00:57:43;;;;;;;3.67;2.53;;;;;;;15.32;77.13;92080.22;515762;28;805;-71
2023/11/04 00:57:59;;;;;;;3.33;2.38;;;;;;;15.34;77.15;92076.81;515550;28;919;-71
2023/11/04 00:58:14;;;;;;;3.63;2.07;;;;;;;15.35;77.10;92075.50;515628;28;976;-72
2023/11/04 00:58:29;;;;;;;5.20;2.10;;;;;;;15.34;77.35;92077.56;515793;28;683;-72
2023/11/04 00:58:45;;;;;;;4.68;2.33;;;;;;;15.36;77.43;92072.09;515532;28;773;-71
2023/11/04 00:59:00;;;;;;;3.30;2.40;;;;;;;15.36;77.34;92074.88;515565;28;778;-70
2023/11/04 00:59:16;;;;;;;3.83;2.27;;;;;;;15.36;77.24;92079.72;515273;28;896;-71
2023/11/04 00:59:31;;;;;;;3.72;2.35;;;;;;;15.34;77.05;92068.47;515811;28;868;-73
2023/11/04 00:59:47;;;;;;;3.47;2.60;;;;;;;15.35;77.10;92079.00;515640;28;833;-73
2023/11/04 01:00:04;;;;;;;3.45;2.70;;;;;;;15.36;76.83;92071.38;515620;28;828;-73
2023/11/04 01:00:25;;;;;;;3.13;2.17;;;;;;;15.33;77.00;92065.00;515327;28;2542;-73
2023/11/04 01:00:41;;;;;;;3.35;2.20;;;;;;;15.32;77.20;92066.31;515545;28;1030;-73
2023/11/04 01:00:56;;;;;;;3.85;2.38;;;;;;;15.32;77.22;92079.50;515788;28;773;-72
2023/11/04 01:01:12;;;;;;;4.13;2.47;;;;;;;15.31;77.50;92081.53;515537;28;947;-72
2023/11/04 01:01:27;;;;;;;4.57;2.58;;;;;;;15.28;77.32;92076.50;515502;28;887;-74
2023/11/04 01:01:43;;;;;;;5.87;3.27;;;;;;;15.27;77.31;92075.78;515558;28;841;-73
2023/11/04 01:01:59;;;;;;;6.50;3.85;;;;;;;15.27;77.35;92081.31;513620;28;876;-73
2023/11/04 01:02:14;;;;;;;5.22;3.33;;;;;;;15.28;77.63;92082.06;513361;28;820;-73
2023/11/04 01:02:30;;;;;;;3.20;2.43;;;;;;;15.28;77.36;92082.06;513474;28;754;-73
2023/11/04 01:02:45;;;;;;;3.37;2.47;;;;;;;15.28;77.36;92082.78;513411;28;881;-73
2023/11/04 01:03:00;;;;;;;3.83;2.60;;;;;;;15.29;77.35;92083.53;513658;28;872;-73
2023/11/04 01:03:18;;;;;;;3.67;2.33;;;;;;;15.30;77.30;92079.38;513156;28;940;-73
2023/11/04 01:03:34;;;;;;;3.90;2.40;;;;;;;15.29;77.33;92081.44;513460;28;845;-72
2023/11/04 01:03:49;;;;;;;3.88;2.42;;;;;;;15.30;77.30;92073.81;514202;28;941;-73
2023/11/04 01:04:05;;;;;;;5.45;2.38;;;;;;;15.31;77.43;92080.84;515768;28;919;-73
2023/11/04 01:04:20;;;;;;;6.28;2.20;;;;;;;15.31;77.38;92066.94;515515;28;836;-73
2023/11/04 01:04:36;;;;;;;3.47;2.13;;;;;;;15.32;77.45;92065.59;515863;28;1213;-73
2023/11/04 01:04:51;;;;;;;4.00;2.43;;;;;;;15.32;77.26;92076.72;517506;28;880;-73
2023/11/04 01:05:07;;;;;;;4.00;2.45;;;;;;;15.33;77.37;92073.34;517756;28;767;-73
2023/11/04 01:05:23;;;;;;;3.22;2.10;;;;;;;15.34;77.33;92065.69;517558;28;867;-73
2023/11/04 01:05:38;;;;;;;3.17;2.00;;;;;;;15.33;77.23;92064.25;517540;28;829;-73
2023/11/04 01:05:54;;;;;;;3.50;2.28;;;;;;;15.34;77.22;92066.44;517465;28;864;-73
2023/11/04 01:06:09;;;;;;;3.63;2.30;;;;;;;15.35;77.07;92061.59;517694;28;915;-74
2023/11/04 01:06:24;;;;;;;2.78;2.20;;;;;;;15.12;77.17;92029.78;517523;28;920;-73
2023/11/04 01:06:40;;;;;;;3.07;2.43;;;;;;;15.34;77.10;92063.66;517658;28;833;-73
2023/11/04 01:06:55;;;;;;;3.10;2.40;;;;;;;15.34;77.12;92060.88;517561;28;753;-72
2023/11/04 01:07:11;;;;;;;3.15;2.13;;;;;;;15.35;77.15;92067.16;517348;28;1098;-73
2023/11/04 01:07:26;;;;;;;3.50;2.30;;;;;;;15.33;77.15;92065.00;515481;28;824;-73
2023/11/04 01:07:41;;;;;;;3.23;2.40;;;;;;;15.34;77.29;92068.47;515300;28;1159;-73
2023/11/04 01:07:57;;;;;;;3.22;2.42;;;;;;;15.32;77.32;92057.25;515625;28;1541;-73
2023/11/04 01:08:13;;;;;;;3.80;2.50;;;;;;;15.33;77.43;92059.44;514775;28;1487;-74
2023/11/04 01:08:28;;;;;;;3.80;2.53;;;;;;;15.33;77.45;92061.50;515156;28;794;-73
2023/11/04 01:08:44;;;;;;;3.47;2.70;;;;;;;15.33;77.30;92059.44;515490;28;750;-73
2023/11/04 01:08:59;;;;;;;4.40;2.60;;;;;;;15.32;77.22;92052.41;515735;28;877;-73
2023/11/04 01:09:15;;;;;;;4.53;2.60;;;;;;;15.33;77.31;92044.81;515455;28;768;-72
2023/11/04 01:09:30;;;;;;;3.65;2.58;;;;;;;15.33;77.20;92042.03;515634;28;956;-71
2023/11/04 01:09:46;;;;;;;4.27;2.43;;;;;;;15.32;77.30;92035.72;515526;28;790;-71
2023/11/04 01:10:01;;;;;;;4.28;2.30;;;;;;;15.34;77.41;92040.66;515845;28;797;-72
2023/11/04 01:10:17;;;;;;;3.43;2.30;;;;;;;15.34;77.34;92043.44;515396;28;825;-71
2023/11/04 01:10:32;;;;;;;4.25;2.40;;;;;;;15.34;77.15;92035.09;515532;28;793;-72
2023/11/04 01:10:47;;;;;;;4.73;2.47;;;;;;;15.28;77.27;92023.66;515468;28;915;-71
2023/11/04 01:11:03;;;;;;;3.53;2.30;;;;;;;15.35;77.34;92031.00;515755;28;825;-71
2023/11/04 01:11:18;;;;;;;3.63;2.20;;;;;;;15.35;77.29;92028.94;515557;28;817;-71
2023/11/04 01:11:34;;;;;;;6.00;2.30;;;;;;;15.34;77.41;92029.53;515595;28;865;-71
2023/11/04 01:11:49;;;;;;;5.75;2.47;;;;;;;15.35;77.26;92031.72;515534;28;877;-71
2023/11/04 01:12:05;;;;;;;4.10;2.60;;;;;;;15.36;77.44;92026.88;515761;28;820;-71
2023/11/04 01:12:21;;;;;;;3.10;2.50;;;;;;;15.36;77.25;92032.44;515389;28;995;-71
2023/11/04 01:12:36;;;;;;;3.63;2.70;;;;;;;15.35;77.37;92037.28;514126;28;1169;-70
2023/11/04 01:12:51;;;;;;;3.60;2.53;;;;;;;15.35;77.17;92025.44;513661;28;1055;-69
2023/11/04 01:13:07;;;;;;;3.23;2.17;;;;;;;15.34;77.19;92021.94;514859;28;771;-69
2023/11/04 01:13:24;;;;;;;3.65;2.35;;;;;;;15.34;77.26;92023.97;515591;28;841;-70
2023/11/04 01:13:40;;;;;;;3.35;2.25;;;;;;;15.35;77.23;92028.22;515577;28;841;-68
2023/11/04 01:13:55;;;;;;;3.05;1.98;;;;;;;15.33;77.45;92028.84;515503;28;766;-70
2023/11/04 01:14:11;;;;;;;3.05;2.10;;;;;;;15.33;77.35;92030.91;515766;28;893;-69
2023/11/04 01:14:26;;;;;;;2.77;2.10;;;;;;;15.32;77.32;92029.44;515445;28;778;-68
2023/11/04 01:14:41;;;;;;;2.95;1.92;;;;;;;15.31;77.22;92030.78;513423;28;916;-70
2023/11/04 01:14:57;;;;;;;3.83;2.07;;;;;;;15.30;77.42;92030.06;513491;28;2060;-70
2023/11/04 01:15:13;;;;;;;3.53;2.22;;;;;;;15.28;77.48;92038.28;513474;28;917;-70
2023/11/04 01:15:28;;;;;;;3.07;2.30;;;;;;;15.27;77.56;92027.78;513442;28;785;-71
2023/11/04 01:15:44;;;;;;;3.35;2.35;;;;;;;15.26;77.58;92038.19;513357;28;778;-71
2023/11/04 01:15:59;;;;;;;2.83;2.13;;;;;;;15.26;77.52;92043.03;513475;28;778;-71
2023/11/04 01:16:14;;;;;;;2.70;2.17;;;;;;;15.26;77.53;92045.81;513335;28;900;-70
2023/11/04 01:16:30;;;;;;;3.30;2.00;;;;;;;15.27;77.58;92044.47;513349;28;865;-70